sensor_id;sensor_type;location;lat;lon;timestamp;pressure;altitude;pressure_sealevel;temperature;humidity
25130;BME280;13308;50.860;13.664;2024-03-17T05:19:14;97369.59;;;3.87;100.00
25130;BME280;13308;50.860;13.664;2024-03-17T05:21:39;97372.31;;;3.87;100.00
25130;BME280;13308;50.860;13.664;2024-03-17T05:24:04;97374.31;;;3.90;100.00
25130;BME280;13308;50.860;13.664;2024-03-17T05:26:29;97374.72;;;3.92;100.00
25130;BME280;13308;50.860;13.664;2024-03-17T05:28:56;97376.34;;;3.93;100.00
25130;BME280;13308;50.860;13.664;2024-03-17T05:31:21;97376.41;;;3.96;100.00
25130;BME280;13308;50.860;13.664;2024-03-17T05:33:48;97374.28;;;4.09;100.00
25130;BME280;13308;50.860;13.664;2024-03-17T05:36:13;97367.13;;;4.01;100.00
25130;BME280;13308;50.860;13.664;2024-03-17T05:38:39;97387.50;;;4.07;100.00
25130;BME280;13308;50.860;13.664;2024-03-17T05:41:09;97382.91;;;4.11;100.00
25130;BME280;13308;50.860;13.664;2024-03-17T05:43:36;97379.72;;;4.09;100.00
25130;BME280;13308;50.860;13.664;2024-03-17T05:46:03;97386.75;;;4.10;100.00
25130;BME280;13308;50.860;13.664;2024-03-17T05:48:29;97390.00;;;4.15;100.00
25130;BME280;13308;50.860;13.664;2024-03-17T05:50:55;97379.56;;;4.21;100.00
25130;BME280;13308;50.860;13.664;2024-03-17T05:53:23;97393.22;;;4.21;100.00
25130;BME280;13308;50.860;13.664;2024-03-17T05:55:49;97392.91;;;4.26;100.00
25130;BME280;13308;50.860;13.664;2024-03-17T05:58:14;97400.41;;;4.29;100.00
25130;BME280;13308;50.860;13.664;2024-03-17T06:00:40;97394.50;;;4.27;100.00
25130;BME280;13308;50.860;13.664;2024-03-17T06:03:06;97401.09;;;4.26;100.00
25130;BME280;13308;50.860;13.664;2024-03-17T06:05:32;97403.53;;;4.31;100.00
25130;BME280;13308;50.860;13.664;2024-03-17T06:07:58;97410.69;;;4.39;100.00
25130;BME280;13308;50.860;13.664;2024-03-17T06:10:23;97412.94;;;4.33;100.00
25130;BME280;13308;50.860;13.664;2024-03-17T06:12:50;97410.56;;;4.32;100.00
25130;BME280;13308;50.860;13.664;2024-03-17T06:15:16;97408.41;;;4.41;100.00
25130;BME280;13308;50.860;13.664;2024-03-17T06:17:41;97414.34;;;4.46;100.00
25130;BME280;13308;50.860;13.664;2024-03-17T06:20:07;97417.88;;;4.47;100.00
25130;BME280;13308;50.860;13.664;2024-03-17T06:22:36;97412.41;;;4.47;100.00
25130;BME280;13308;50.860;13.664;2024-03-17T06:25:01;97416.34;;;4.49;100.00
25130;BME280;13308;50.860;13.664;2024-03-17T06:27:27;97410.91;;;4.49;100.00
25130;BME280;13308;50.860;13.664;2024-03-17T06:29:53;97416.94;;;4.62;100.00
25130;BME280;13308;50.860;13.664;2024-03-17T06:32:20;97422.06;;;4.63;100.00
25130;BME280;13308;50.860;13.664;2024-03-17T06:34:45;97420.41;;;4.59;100.00
25130;BME280;13308;50.860;13.664;2024-03-17T06:37:11;97417.69;;;4.59;100.00
25130;BME280;13308;50.860;13.664;2024-03-17T06:39:37;97418.63;;;4.70;100.00
25130;BME280;13308;50.860;13.664;2024-03-17T06:42:02;97419.25;;;4.82;100.00
25130;BME280;13308;50.860;13.664;2024-03-17T06:44:28;97426.38;;;4.90;100.00
25130;BME280;13308;50.860;13.664;2024-03-17T06:46:55;97425.06;;;5.03;100.00
25130;BME280;13308;50.860;13.664;2024-03-17T06:49:21;97424.03;;;5.15;100.00
25130;BME280;13308;50.860;13.664;2024-03-17T06:51:46;97427.81;;;5.33;100.00
25130;BME280;13308;50.860;13.664;2024-03-17T06:54:13;97430.34;;;5.19;100.00
25130;BME280;13308;50.860;13.664;2024-03-17T06:56:38;97430.34;;;5.45;100.00
25130;BME280;13308;50.860;13.664;2024-03-17T06:59:04;97438.53;;;5.45;100.00
25130;BME280;13308;50.860;13.664;2024-03-17T07:01:29;97446.50;;;5.27;100.00
25130;BME280;13308;50.860;13.664;2024-03-17T07:03:54;97442.28;;;5.33;100.00
25130;BME280;13308;50.860;13.664;2024-03-17T07:06:19;97448.97;;;5.36;100.00
25130;BME280;13308;50.860;13.664;2024-03-17T07:08:45;97447.06;;;5.40;100.00
25130;BME280;13308;50.860;13.664;2024-03-17T07:11:10;97450.28;;;5.45;100.00
25130;BME280;13308;50.860;13.664;2024-03-17T07:13:36;97447.69;;;5.56;100.00
25130;BME280;13308;50.860;13.664;2024-03-17T07:16:03;97441.31;;;5.48;100.00
25130;BME280;13308;50.860;13.664;2024-03-17T07:18:31;97454.69;;;5.53;100.00
25130;BME280;13308;50.860;13.664;2024-03-17T07:20:58;97450.56;;;5.66;100.00
25130;BME280;13308;50.860;13.664;2024-03-17T07:23:24;97461.97;;;5.72;100.00
25130;BME280;13308;50.860;13.664;2024-03-17T07:25:59;97460.19;;;5.83;100.00
25130;BME280;13308;50.860;13.664;2024-03-17T07:28:25;97469.16;;;5.80;100.00
25130;BME280;13308;50.860;13.664;2024-03-17T07:30:52;97464.53;;;5.84;100.00
25130;BME280;13308;50.860;13.664;2024-03-17T07:33:19;97473.75;;;6.02;100.00
25130;BME280;13308;50.860;13.664;2024-03-17T07:38:13;97455.34;;;6.02;100.00
25130;BME280;13308;50.860;13.664;2024-03-17T07:40:39;97469.25;;;6.20;100.00
25130;BME280;13308;50.860;13.664;2024-03-17T07:43:04;97468.50;;;6.23;100.00
25130;BME280;13308;50.860;13.664;2024-03-17T07:45:30;97466.97;;;6.25;100.00
25130;BME280;13308;50.860;13.664;2024-03-17T07:47:55;97475.72;;;6.05;100.00
25130;BME280;13308;50.860;13.664;2024-03-17T07:50:20;97476.03;;;6.00;100.00
25130;BME280;13308;50.860;13.664;2024-03-17T07:52:46;97469.00;;;6.32;100.00
25130;BME280;13308;50.860;13.664;2024-03-17T07:55:11;97470.72;;;6.47;100.00
25130;BME280;13308;50.860;13.664;2024-03-17T07:57:36;97473.63;;;6.61;100.00
25130;BME280;13308;50.860;13.664;2024-03-17T08:00:02;97469.44;;;6.74;100.00
25130;BME280;13308;50.860;13.664;2024-03-17T08:02:29;97476.44;;;6.68;100.00
25130;BME280;13308;50.860;13.664;2024-03-17T08:04:55;97474.31;;;6.91;100.00
25130;BME280;13308;50.860;13.664;2024-03-17T08:07:20;97480.31;;;7.10;100.00
25130;BME280;13308;50.860;13.664;2024-03-17T08:09:45;97471.47;;;7.31;100.00
25130;BME280;13308;50.860;13.664;2024-03-17T08:12:11;97481.75;;;7.41;100.00
25130;BME280;13308;50.860;13.664;2024-03-17T08:14:37;97480.31;;;7.61;100.00
25130;BME280;13308;50.860;13.664;2024-03-17T08:17:02;97490.06;;;7.55;100.00
25130;BME280;13308;50.860;13.664;2024-03-17T08:19:27;97486.28;;;7.77;100.00
25130;BME280;13308;50.860;13.664;2024-03-17T08:21:53;97484.75;;;7.79;100.00
25130;BME280;13308;50.860;13.664;2024-03-17T08:24:18;97486.66;;;7.75;100.00
25130;BME280;13308;50.860;13.664;2024-03-17T08:26:44;97478.06;;;7.77;100.00
25130;BME280;13308;50.860;13.664;2024-03-17T08:29:11;97488.38;;;7.33;100.00
25130;BME280;13308;50.860;13.664;2024-03-17T08:31:36;97482.66;;;7.59;100.00
25130;BME280;13308;50.860;13.664;2024-03-17T08:34:02;97481.78;;;7.48;99.39
25130;BME280;13308;50.860;13.664;2024-03-17T08:36:27;97472.09;;;7.64;100.00
25130;BME280;13308;50.860;13.664;2024-03-17T08:38:53;97464.16;;;7.49;100.00
25130;BME280;13308;50.860;13.664;2024-03-17T08:41:20;97471.25;;;7.53;100.00
25130;BME280;13308;50.860;13.664;2024-03-17T08:43:45;97472.97;;;7.79;100.00
25130;BME280;13308;50.860;13.664;2024-03-17T08:46:11;97478.44;;;7.75;99.31
25130;BME280;13308;50.860;13.664;2024-03-17T08:48:40;97475.63;;;7.65;98.02
25130;BME280;13308;50.860;13.664;2024-03-17T08:51:07;97475.91;;;7.46;97.13
25130;BME280;13308;50.860;13.664;2024-03-17T08:53:33;97475.72;;;7.79;96.91
25130;BME280;13308;50.860;13.664;2024-03-17T08:55:59;97482.59;;;8.20;95.11
25130;BME280;13308;50.860;13.664;2024-03-17T08:58:25;97467.31;;;8.26;93.74
25130;BME280;13308;50.860;13.664;2024-03-17T09:00:51;97469.50;;;7.89;92.69
25130;BME280;13308;50.860;13.664;2024-03-17T09:03:17;97457.28;;;7.76;93.85
25130;BME280;13308;50.860;13.664;2024-03-17T09:05:47;97460.38;;;7.71;95.08
25130;BME280;13308;50.860;13.664;2024-03-17T09:08:18;97455.34;;;7.80;96.41
25130;BME280;13308;50.860;13.664;2024-03-17T09:10:46;97456.13;;;7.87;93.29
25130;BME280;13308;50.860;13.664;2024-03-17T09:13:24;97453.34;;;7.77;92.62
25130;BME280;13308;50.860;13.664;2024-03-17T09:15:59;97440.84;;;7.90;94.07
25130;BME280;13308;50.860;13.664;2024-03-17T09:18:31;97450.63;;;7.84;91.19
25130;BME280;13308;50.860;13.664;2024-03-17T09:21:02;97446.28;;;8.99;90.22
25130;BME280;13308;50.860;13.664;2024-03-17T09:23:28;97442.72;;;8.81;87.40
25130;BME280;13308;50.860;13.664;2024-03-17T09:26:01;97449.38;;;9.50;85.79
25130;BME280;13308;50.860;13.664;2024-03-17T09:28:28;97452.03;;;9.92;81.91
25130;BME280;13308;50.860;13.664;2024-03-17T09:30:54;97439.91;;;9.72;79.53
25130;BME280;13308;50.860;13.664;2024-03-17T09:33:20;97445.72;;;10.09;77.95
25130;BME280;13308;50.860;13.664;2024-03-17T09:35:53;97448.69;;;10.46;76.15
25130;BME280;13308;50.860;13.664;2024-03-17T09:38:19;97437.22;;;10.51;75.68
25130;BME280;13308;50.860;13.664;2024-03-17T09:40:48;97440.56;;;10.11;73.95
25130;BME280;13308;50.860;13.664;2024-03-17T09:43:16;97437.63;;;9.22;74.71
25130;BME280;13308;50.860;13.664;2024-03-17T09:45:41;97444.63;;;9.65;76.14
25130;BME280;13308;50.860;13.664;2024-03-17T09:48:09;97441.53;;;9.31;75.92
25130;BME280;13308;50.860;13.664;2024-03-17T09:50:39;97434.88;;;9.04;74.86
25130;BME280;13308;50.860;13.664;2024-03-17T09:53:05;97439.97;;;9.30;75.50
25130;BME280;13308;50.860;13.664;2024-03-17T09:55:30;97439.94;;;9.51;76.46
25130;BME280;13308;50.860;13.664;2024-03-17T09:57:55;97435.19;;;9.66;76.14
25130;BME280;13308;50.860;13.664;2024-03-17T10:00:21;97434.59;;;10.30;74.12
25130;BME280;13308;50.860;13.664;2024-03-17T10:02:47;97433.72;;;10.51;72.79
25130;BME280;13308;50.860;13.664;2024-03-17T10:05:23;97443.69;;;11.36;71.12
25130;BME280;13308;50.860;13.664;2024-03-17T10:07:50;97442.28;;;11.65;68.42
25130;BME280;13308;50.860;13.664;2024-03-17T10:10:16;97432.81;;;11.19;68.76
25130;BME280;13308;50.860;13.664;2024-03-17T10:12:43;97432.34;;;11.71;67.33
25130;BME280;13308;50.860;13.664;2024-03-17T10:15:10;97430.41;;;12.05;64.50
25130;BME280;13308;50.860;13.664;2024-03-17T10:17:37;97430.25;;;11.82;62.95
25130;BME280;13308;50.860;13.664;2024-03-17T10:20:13;97428.25;;;11.46;64.78
25130;BME280;13308;50.860;13.664;2024-03-17T10:22:56;97433.34;;;11.47;64.81
25130;BME280;13308;50.860;13.664;2024-03-17T10:29:22;97429.19;;;11.73;64.94
25130;BME280;13308;50.860;13.664;2024-03-17T10:31:55;97434.09;;;11.51;65.72
25130;BME280;13308;50.860;13.664;2024-03-17T10:34:22;97431.06;;;10.91;66.55
25130;BME280;13308;50.860;13.664;2024-03-17T10:36:50;97435.72;;;10.43;67.45
25130;BME280;13308;50.860;13.664;2024-03-17T10:39:27;97437.53;;;9.71;67.29
25130;BME280;13308;50.860;13.664;2024-03-17T10:42:00;97427.66;;;9.91;66.92
25130;BME280;13308;50.860;13.664;2024-03-17T10:44:30;97426.97;;;10.55;65.01
25130;BME280;13308;50.860;13.664;2024-03-17T10:46:56;97425.50;;;10.33;64.98
25130;BME280;13308;50.860;13.664;2024-03-17T10:49:32;97419.69;;;10.82;66.23
25130;BME280;13308;50.860;13.664;2024-03-17T10:52:00;97425.69;;;11.21;63.92
25130;BME280;13308;50.860;13.664;2024-03-17T10:54:26;97425.50;;;11.42;63.30
25130;BME280;13308;50.860;13.664;2024-03-17T10:56:55;97426.56;;;11.55;63.28
25130;BME280;13308;50.860;13.664;2024-03-17T10:59:38;97423.59;;;11.76;62.66
25130;BME280;13308;50.860;13.664;2024-03-17T11:02:33;97410.88;;;11.86;60.39
25130;BME280;13308;50.860;13.664;2024-03-17T11:05:06;97418.22;;;11.99;60.49
25130;BME280;13308;50.860;13.664;2024-03-17T11:07:37;97417.09;;;11.93;60.59
25130;BME280;13308;50.860;13.664;2024-03-17T11:10:04;97409.78;;;10.30;61.99
25130;BME280;13308;50.860;13.664;2024-03-17T11:12:41;97403.88;;;11.78;61.50
25130;BME280;13308;50.860;13.664;2024-03-17T11:17:47;97409.00;;;10.91;61.78
25130;BME280;13308;50.860;13.664;2024-03-17T11:20:21;97413.56;;;11.52;60.34
25130;BME280;13308;50.860;13.664;2024-03-17T11:22:49;97410.81;;;11.89;60.29
25130;BME280;13308;50.860;13.664;2024-03-17T11:27:58;97405.25;;;10.61;63.33
25130;BME280;13308;50.860;13.664;2024-03-17T11:39:01;97397.25;;;10.80;66.34
25130;BME280;13308;50.860;13.664;2024-03-17T11:46:40;97405.22;;;11.19;63.88
25130;BME280;13308;50.860;13.664;2024-03-17T11:49:16;97409.59;;;12.27;63.28
25130;BME280;13308;50.860;13.664;2024-03-17T11:51:42;97402.75;;;11.72;62.76
25130;BME280;13308;50.860;13.664;2024-03-17T11:54:13;97403.66;;;11.95;64.09
25130;BME280;13308;50.860;13.664;2024-03-17T11:56:40;97403.94;;;11.27;61.87
25130;BME280;13308;50.860;13.664;2024-03-17T11:59:06;97401.16;;;11.30;64.40
25130;BME280;13308;50.860;13.664;2024-03-17T12:01:34;97393.81;;;11.54;65.40
25130;BME280;13308;50.860;13.664;2024-03-17T12:03:59;97396.34;;;11.38;63.18
25130;BME280;13308;50.860;13.664;2024-03-17T12:06:29;97393.72;;;11.24;63.42
25130;BME280;13308;50.860;13.664;2024-03-17T12:08:54;97382.91;;;10.99;63.79
25130;BME280;13308;50.860;13.664;2024-03-17T12:11:19;97385.00;;;10.81;64.42
25130;BME280;13308;50.860;13.664;2024-03-17T12:13:45;97385.78;;;10.85;65.36
25130;BME280;13308;50.860;13.664;2024-03-17T12:16:12;97378.00;;;10.73;65.84
25130;BME280;13308;50.860;13.664;2024-03-17T12:18:38;97375.75;;;10.58;65.18
25130;BME280;13308;50.860;13.664;2024-03-17T12:21:12;97372.69;;;10.42;64.60
25130;BME280;13308;50.860;13.664;2024-03-17T12:23:39;97377.94;;;10.80;63.14
25130;BME280;13308;50.860;13.664;2024-03-17T12:26:05;97376.06;;;11.14;62.05
25130;BME280;13308;50.860;13.664;2024-03-17T12:28:30;97383.94;;;11.93;60.68
25130;BME280;13308;50.860;13.664;2024-03-17T12:30:56;97373.38;;;12.71;57.42
25130;BME280;13308;50.860;13.664;2024-03-17T12:33:24;97377.75;;;12.42;56.74
25130;BME280;13308;50.860;13.664;2024-03-17T12:35:49;97379.53;;;12.29;57.23
25130;BME280;13308;50.860;13.664;2024-03-17T12:38:21;97371.63;;;12.81;56.39
25130;BME280;13308;50.860;13.664;2024-03-17T12:40:47;97367.19;;;13.13;54.58
25130;BME280;13308;50.860;13.664;2024-03-17T12:43:13;97358.84;;;12.90;55.43
25130;BME280;13308;50.860;13.664;2024-03-17T12:45:38;97355.69;;;12.65;56.03
25130;BME280;13308;50.860;13.664;2024-03-17T12:48:12;97360.75;;;12.70;58.68
25130;BME280;13308;50.860;13.664;2024-03-17T12:50:44;97358.34;;;13.22;60.18
25130;BME280;13308;50.860;13.664;2024-03-17T12:53:15;97366.84;;;12.85;58.43
25130;BME280;13308;50.860;13.664;2024-03-17T12:55:42;97353.25;;;12.67;59.10
25130;BME280;13308;50.860;13.664;2024-03-17T12:58:25;97363.25;;;13.34;55.88
25130;BME280;13308;50.860;13.664;2024-03-17T13:01:12;97362.81;;;14.88;56.03
25130;BME280;13308;50.860;13.664;2024-03-17T13:03:38;97364.28;;;14.92;52.21
25130;BME280;13308;50.860;13.664;2024-03-17T13:06:05;97354.72;;;13.87;52.53
25130;BME280;13308;50.860;13.664;2024-03-17T13:08:32;97356.97;;;13.10;54.89
25130;BME280;13308;50.860;13.664;2024-03-17T13:11:01;97353.72;;;12.89;55.95
25130;BME280;13308;50.860;13.664;2024-03-17T13:13:29;97359.47;;;13.86;56.12
25130;BME280;13308;50.860;13.664;2024-03-17T13:15:54;97350.75;;;13.88;55.82
25130;BME280;13308;50.860;13.664;2024-03-17T13:18:19;97346.22;;;13.78;54.45
25130;BME280;13308;50.860;13.664;2024-03-17T13:20:46;97351.72;;;14.88;54.52
25130;BME280;13308;50.860;13.664;2024-03-17T13:23:11;97352.50;;;15.36;52.89
25130;BME280;13308;50.860;13.664;2024-03-17T13:25:38;97347.91;;;15.74;49.79
25130;BME280;13308;50.860;13.664;2024-03-17T13:28:04;97341.31;;;14.92;51.48
25130;BME280;13308;50.860;13.664;2024-03-17T13:30:30;97342.69;;;14.32;53.37
25130;BME280;13308;50.860;13.664;2024-03-17T13:32:56;97351.00;;;14.13;53.62
25130;BME280;13308;50.860;13.664;2024-03-17T13:35:26;97345.59;;;14.45;53.59
25130;BME280;13308;50.860;13.664;2024-03-17T13:37:52;97338.78;;;14.30;53.66
25130;BME280;13308;50.860;13.664;2024-03-17T13:40:20;97341.13;;;14.31;52.51
25130;BME280;13308;50.860;13.664;2024-03-17T13:42:46;97332.13;;;13.69;52.62
25130;BME280;13308;50.860;13.664;2024-03-17T13:45:15;97327.78;;;13.68;54.04
25130;BME280;13308;50.860;13.664;2024-03-17T13:47:41;97328.38;;;14.14;52.18
25130;BME280;13308;50.860;13.664;2024-03-17T13:50:08;97323.94;;;13.19;52.57
25130;BME280;13308;50.860;13.664;2024-03-17T13:52:39;97324.47;;;12.65;55.02
25130;BME280;13308;50.860;13.664;2024-03-17T13:55:06;97323.81;;;13.26;52.05
25130;BME280;13308;50.860;13.664;2024-03-17T13:57:34;97323.84;;;14.24;50.92
25130;BME280;13308;50.860;13.664;2024-03-17T13:59:59;97327.63;;;15.29;50.16
25130;BME280;13308;50.860;13.664;2024-03-17T14:02:24;97322.34;;;15.79;48.61
25130;BME280;13308;50.860;13.664;2024-03-17T14:04:50;97330.63;;;15.95;48.97
25130;BME280;13308;50.860;13.664;2024-03-17T14:07:15;97324.88;;;14.65;50.72
25130;BME280;13308;50.860;13.664;2024-03-17T14:09:41;97317.41;;;15.10;51.84
25130;BME280;13308;50.860;13.664;2024-03-17T14:12:07;97321.88;;;16.34;49.02
25130;BME280;13308;50.860;13.664;2024-03-17T14:14:33;97325.31;;;17.38;47.17
25130;BME280;13308;50.860;13.664;2024-03-17T14:16:58;97330.94;;;18.24;43.88
25130;BME280;13308;50.860;13.664;2024-03-17T14:19:23;97325.03;;;16.99;45.04
25130;BME280;13308;50.860;13.664;2024-03-17T14:21:49;97332.75;;;16.82;45.97
25130;BME280;13308;50.860;13.664;2024-03-17T14:24:14;97313.00;;;14.97;46.51
25130;BME280;13308;50.860;13.664;2024-03-17T14:26:39;97309.56;;;13.86;48.15
25130;BME280;13308;50.860;13.664;2024-03-17T14:29:05;97307.81;;;13.96;49.29
25130;BME280;13308;50.860;13.664;2024-03-17T14:31:31;97310.63;;;15.43;46.92
25130;BME280;13308;50.860;13.664;2024-03-17T14:33:58;97308.88;;;16.31;46.13
25130;BME280;13308;50.860;13.664;2024-03-17T14:36:23;97319.72;;;17.72;43.50
25130;BME280;13308;50.860;13.664;2024-03-17T14:38:52;97318.50;;;18.16;42.28
25130;BME280;13308;50.860;13.664;2024-03-17T14:41:18;97318.97;;;18.76;42.37
25130;BME280;13308;50.860;13.664;2024-03-17T14:43:43;97310.56;;;18.67;40.87
25130;BME280;13308;50.860;13.664;2024-03-17T14:46:10;97315.28;;;18.79;39.30
25130;BME280;13308;50.860;13.664;2024-03-17T14:48:38;97318.00;;;19.09;39.04
25130;BME280;13308;50.860;13.664;2024-03-17T14:51:04;97307.09;;;18.02;39.53
25130;BME280;13308;50.860;13.664;2024-03-17T14:53:29;97303.06;;;17.81;41.39
25130;BME280;13308;50.860;13.664;2024-03-17T14:55:55;97306.53;;;17.51;41.24
25130;BME280;13308;50.860;13.664;2024-03-17T14:58:20;97300.56;;;15.62;43.61
25130;BME280;13308;50.860;13.664;2024-03-17T15:00:46;97313.22;;;16.82;42.92
25130;BME280;13308;50.860;13.664;2024-03-17T15:03:12;97303.91;;;17.23;41.64
25130;BME280;13308;50.860;13.664;2024-03-17T15:05:38;97307.97;;;17.09;42.37
25130;BME280;13308;50.860;13.664;2024-03-17T15:08:04;97307.44;;;16.64;42.62
25130;BME280;13308;50.860;13.664;2024-03-17T15:10:29;97310.94;;;16.02;43.71
25130;BME280;13308;50.860;13.664;2024-03-17T15:12:54;97302.03;;;16.07;43.84
25130;BME280;13308;50.860;13.664;2024-03-17T15:15:20;97316.25;;;16.75;43.57
25130;BME280;13308;50.860;13.664;2024-03-17T15:17:45;97307.78;;;17.50;42.47
25130;BME280;13308;50.860;13.664;2024-03-17T15:20:11;97309.25;;;16.71;42.95
25130;BME280;13308;50.860;13.664;2024-03-17T15:22:48;97305.00;;;16.79;44.02
25130;BME280;13308;50.860;13.664;2024-03-17T15:25:17;97297.66;;;16.72;45.72
25130;BME280;13308;50.860;13.664;2024-03-17T15:27:43;97303.50;;;16.24;46.09
25130;BME280;13308;50.860;13.664;2024-03-17T15:30:14;97302.06;;;16.32;45.67
25130;BME280;13308;50.860;13.664;2024-03-17T15:32:51;97297.63;;;16.47;46.29
25130;BME280;13308;50.860;13.664;2024-03-17T15:35:20;97292.25;;;16.15;47.41
25130;BME280;13308;50.860;13.664;2024-03-17T15:37:45;97299.91;;;16.11;47.10
25130;BME280;13308;50.860;13.664;2024-03-17T15:40:11;97296.34;;;15.98;46.59
25130;BME280;13308;50.860;13.664;2024-03-17T15:42:42;97295.78;;;15.62;48.01
25130;BME280;13308;50.860;13.664;2024-03-17T15:45:09;97296.41;;;15.82;47.08
25130;BME280;13308;50.860;13.664;2024-03-17T15:47:35;97285.69;;;15.24;47.42
25130;BME280;13308;50.860;13.664;2024-03-17T15:50:00;97283.25;;;14.65;48.69
25130;BME280;13308;50.860;13.664;2024-03-17T15:52:25;97272.63;;;14.28;49.75
25130;BME280;13308;50.860;13.664;2024-03-17T15:54:51;97272.00;;;14.01;51.24
25130;BME280;13308;50.860;13.664;2024-03-17T15:57:17;97269.25;;;14.01;51.78
25130;BME280;13308;50.860;13.664;2024-03-17T15:59:45;97267.59;;;14.23;51.36
25130;BME280;13308;50.860;13.664;2024-03-17T16:02:11;97277.34;;;13.92;50.88
25130;BME280;13308;50.860;13.664;2024-03-17T16:04:37;97267.66;;;13.45;52.58
25130;BME280;13308;50.860;13.664;2024-03-17T16:07:03;97258.16;;;12.81;54.17
25130;BME280;13308;50.860;13.664;2024-03-17T16:09:31;97257.69;;;12.36;54.61
25130;BME280;13308;50.860;13.664;2024-03-17T16:11:56;97261.53;;;11.63;57.18
25130;BME280;13308;50.860;13.664;2024-03-17T16:14:22;97253.03;;;11.13;58.17
25130;BME280;13308;50.860;13.664;2024-03-17T16:16:49;97254.34;;;10.61;59.77
25130;BME280;13308;50.860;13.664;2024-03-17T16:19:16;97257.03;;;10.24;60.62
25130;BME280;13308;50.860;13.664;2024-03-17T16:21:41;97254.16;;;9.73;61.87
25130;BME280;13308;50.860;13.664;2024-03-17T16:24:14;97246.41;;;9.54;61.96
25130;BME280;13308;50.860;13.664;2024-03-17T16:26:40;97252.78;;;9.37;62.32
25130;BME280;13308;50.860;13.664;2024-03-17T16:29:13;97242.25;;;9.15;64.13
25130;BME280;13308;50.860;13.664;2024-03-17T16:31:42;97242.72;;;8.96;65.92
25130;BME280;13308;50.860;13.664;2024-03-17T16:34:08;97247.84;;;8.76;66.33
25130;BME280;13308;50.860;13.664;2024-03-17T16:36:34;97256.91;;;8.63;67.23
25130;BME280;13308;50.860;13.664;2024-03-17T16:39:09;97248.28;;;8.43;68.01
25130;BME280;13308;50.860;13.664;2024-03-17T16:41:36;97265.56;;;8.37;68.81
25130;BME280;13308;50.860;13.664;2024-03-17T16:44:07;97261.22;;;8.18;69.57
25130;BME280;13308;50.860;13.664;2024-03-17T16:49:19;97271.00;;;7.92;72.06
25130;BME280;13308;50.860;13.664;2024-03-17T16:51:45;97255.66;;;7.77;72.85
25130;BME280;13308;50.860;13.664;2024-03-17T16:54:11;97259.16;;;7.60;74.92
25130;BME280;13308;50.860;13.664;2024-03-17T16:56:37;97258.31;;;7.45;76.16
25130;BME280;13308;50.860;13.664;2024-03-17T16:59:03;97259.47;;;7.37;76.90
25130;BME280;13308;50.860;13.664;2024-03-17T17:01:29;97262.88;;;7.06;78.33
25130;BME280;13308;50.860;13.664;2024-03-17T17:03:54;97267.47;;;6.88;80.43
25130;BME280;13308;50.860;13.664;2024-03-17T17:06:21;97263.75;;;6.60;82.58
25130;BME280;13308;50.860;13.664;2024-03-17T17:08:47;97252.66;;;6.39;84.77
25130;BME280;13308;50.860;13.664;2024-03-17T17:11:15;97265.44;;;6.21;87.37
25130;BME280;13308;50.860;13.664;2024-03-17T17:13:41;97257.78;;;5.97;87.60
25130;BME280;13308;50.860;13.664;2024-03-17T17:16:06;97257.16;;;5.74;90.11
25130;BME280;13308;50.860;13.664;2024-03-17T17:18:50;97254.47;;;5.44;93.32
25130;BME280;13308;50.860;13.664;2024-03-17T17:21:23;97254.72;;;5.32;94.92
25130;BME280;13308;50.860;13.664;2024-03-17T17:23:49;97257.28;;;5.15;97.00
25130;BME280;13308;50.860;13.664;2024-03-17T17:26:25;97251.41;;;4.83;99.48
25130;BME280;13308;50.860;13.664;2024-03-17T17:28:55;97256.72;;;4.73;100.00
25130;BME280;13308;50.860;13.664;2024-03-17T17:31:22;97257.25;;;4.56;100.00
25130;BME280;13308;50.860;13.664;2024-03-17T17:33:49;97249.22;;;4.40;100.00
25130;BME280;13308;50.860;13.664;2024-03-17T17:36:14;97247.63;;;4.36;100.00
25130;BME280;13308;50.860;13.664;2024-03-17T17:38:40;97249.81;;;4.27;100.00
25130;BME280;13308;50.860;13.664;2024-03-17T17:41:07;97247.38;;;4.22;100.00
25130;BME280;13308;50.860;13.664;2024-03-17T17:43:39;97258.25;;;4.18;100.00
25130;BME280;13308;50.860;13.664;2024-03-17T17:46:23;97250.34;;;4.13;100.00
25130;BME280;13308;50.860;13.664;2024-03-17T17:48:51;97247.06;;;4.01;100.00
25130;BME280;13308;50.860;13.664;2024-03-17T17:51:17;97248.50;;;3.95;100.00
25130;BME280;13308;50.860;13.664;2024-03-17T17:53:50;97248.69;;;3.83;100.00
25130;BME280;13308;50.860;13.664;2024-03-17T17:56:18;97249.06;;;3.81;100.00
25130;BME280;13308;50.860;13.664;2024-03-17T17:58:46;97240.41;;;3.76;100.00
25130;BME280;13308;50.860;13.664;2024-03-17T18:01:14;97244.69;;;3.77;100.00
25130;BME280;13308;50.860;13.664;2024-03-17T18:03:40;97246.69;;;3.80;100.00
25130;BME280;13308;50.860;13.664;2024-03-17T18:06:07;97244.19;;;3.71;100.00
25130;BME280;13308;50.860;13.664;2024-03-17T18:08:35;97242.22;;;3.68;100.00
25130;BME280;13308;50.860;13.664;2024-03-17T18:11:01;97248.44;;;3.69;100.00
25130;BME280;13308;50.860;13.664;2024-03-17T18:13:27;97248.94;;;3.74;100.00
25130;BME280;13308;50.860;13.664;2024-03-17T18:15:56;97247.03;;;3.56;100.00
25130;BME280;13308;50.860;13.664;2024-03-17T18:18:21;97247.50;;;3.58;100.00
25130;BME280;13308;50.860;13.664;2024-03-17T18:20:57;97247.31;;;3.70;100.00
25130;BME280;13308;50.860;13.664;2024-03-17T18:23:24;97241.84;;;3.70;100.00
25130;BME280;13308;50.860;13.664;2024-03-17T18:25:50;97241.97;;;3.54;100.00
25130;BME280;13308;50.860;13.664;2024-03-17T18:28:16;97249.78;;;3.56;100.00
25130;BME280;13308;50.860;13.664;2024-03-17T18:30:42;97247.50;;;3.58;100.00
25130;BME280;13308;50.860;13.664;2024-03-17T18:33:08;97243.28;;;3.41;100.00
25130;BME280;13308;50.860;13.664;2024-03-17T18:35:34;97247.44;;;3.35;100.00
25130;BME280;13308;50.860;13.664;2024-03-17T18:38:03;97246.22;;;3.33;100.00
25130;BME280;13308;50.860;13.664;2024-03-17T18:40:30;97242.78;;;3.36;100.00